Time;durP1;ratioP1;P1;durP2;ratioP2;P2;SDS_P1;SDS_P2;PMS_P1;PMS_P2;Temp;Humidity;BMP_temperature;BMP_pressure;BME280_temperature;BME280_humidity;BME280_pressure;Samples;Min_cycle;Max_cycle;Signal;HPM_P1;HPM_P2
2023/03/19 00:02:25;;;;;;;13.27;9.50;;;;;;;-146.27;100.00;48363.75;5088516;28;20058;-67
2023/03/19 00:04:50;;;;;;;21.80;11.50;;;;;;;-146.27;100.00;48323.91;5079426;28;20031;-68
2023/03/19 00:07:16;;;;;;;15.65;9.80;;;;;;;-146.27;100.00;48339.84;5091594;28;20040;-67
2023/03/19 00:09:42;;;;;;;14.52;9.90;;;;;;;-146.27;100.00;48341.81;5075420;28;20028;-66
2023/03/19 00:12:08;;;;;;;19.70;12.23;;;;;;;-146.27;100.00;48331.88;5084679;28;20131;-66
2023/03/19 00:14:34;;;;;;;16.15;10.73;;;;;;;-146.27;100.00;48321.91;5074809;28;20028;-67
2023/03/19 00:17:00;;;;;;;18.98;11.88;;;;;;;-146.27;100.00;48327.88;5075499;28;20364;-67
2023/03/19 00:19:25;;;;;;;20.63;13.00;;;;;;;-146.27;100.00;48339.84;5084722;28;20064;-67
2023/03/19 00:21:51;;;;;;;17.52;12.23;;;;;;;-146.27;100.00;48325.91;5091853;28;20027;-68
2023/03/19 00:24:16;;;;;;;23.05;13.88;;;;;;;-146.27;100.00;48355.78;5079124;28;20435;-67
2023/03/19 00:26:41;;;;;;;24.00;14.23;;;;;;;-146.27;100.00;48311.94;5083506;28;20073;-68
2023/03/19 00:29:07;;;;;;;21.33;14.52;;;;;;;-146.27;100.00;48325.91;5094313;28;20073;-67
2023/03/19 00:31:33;;;;;;;22.05;14.55;;;;;;;-146.27;100.00;48335.84;5090862;28;20400;-67
2023/03/19 00:33:59;;;;;;;26.40;15.30;;;;;;;-146.27;100.00;48317.94;5092564;28;20402;-68
2023/03/19 00:36:27;;;;;;;24.45;16.50;;;;;;;-146.27;100.00;48339.84;5088340;28;20021;-67
2023/03/19 00:38:52;;;;;;;24.65;17.02;;;;;;;-146.27;100.00;48351.78;5087895;28;20031;-69
2023/03/19 00:41:19;;;;;;;24.77;16.35;;;;;;;-146.27;100.00;48347.81;5089615;28;20028;-68
2023/03/19 00:43:45;;;;;;;23.15;16.25;;;;;;;-146.27;100.00;48361.75;5074135;28;20381;-67
2023/03/19 00:46:11;;;;;;;21.38;14.90;;;;;;;-146.27;100.00;48315.94;5078748;28;20115;-68
2023/03/19 00:48:36;;;;;;;21.35;15.95;;;;;;;-146.27;100.00;48347.81;5081470;28;20103;-68
2023/03/19 00:51:03;;;;;;;24.17;15.90;;;;;;;-146.27;100.00;48353.78;5093224;28;20016;-67
2023/03/19 00:53:29;;;;;;;23.25;15.93;;;;;;;-146.27;100.00;48355.78;5089233;28;20436;-68
2023/03/19 00:55:54;;;;;;;28.80;15.57;;;;;;;-146.27;100.00;48323.91;5094272;28;20111;-68
2023/03/19 00:58:20;;;;;;;25.27;14.95;;;;;;;-146.27;100.00;48349.78;5093387;28;20028;-67
2023/03/19 01:00:45;;;;;;;23.80;15.13;;;;;;;-146.27;100.00;48355.78;5087802;28;20024;-68
2023/03/19 01:03:11;;;;;;;27.50;15.63;;;;;;;-146.27;100.00;48343.81;5088258;28;20570;-68
2023/03/19 01:05:36;;;;;;;24.13;14.82;;;;;;;-146.27;100.00;48383.66;5093161;28;20081;-67
2023/03/19 01:08:02;;;;;;;24.05;14.25;;;;;;;-146.27;100.00;48361.75;5090057;28;20114;-68
2023/03/19 01:10:27;;;;;;;21.65;13.35;;;;;;;-146.27;100.00;48361.75;5076386;28;20028;-67
2023/03/19 01:12:52;;;;;;;24.92;13.52;;;;;;;-146.27;100.00;48347.81;5082425;28;20028;-67
2023/03/19 01:15:18;;;;;;;26.35;13.40;;;;;;;-146.27;100.00;48385.66;5093510;28;20027;-67
2023/03/19 01:17:43;;;;;;;21.10;12.30;;;;;;;-146.27;100.00;48339.84;5092505;28;20487;-67
2023/03/19 01:20:12;;;;;;;22.17;14.00;;;;;;;-146.27;100.00;48325.91;5092997;28;20395;-66
2023/03/19 01:22:40;;;;;;;23.50;12.82;;;;;;;-146.27;100.00;48349.78;5080863;28;20024;-68
2023/03/19 01:25:06;;;;;;;22.83;12.98;;;;;;;-146.27;100.00;48383.66;5084439;28;20062;-67
2023/03/19 01:27:31;;;;;;;23.98;12.57;;;;;;;-146.27;100.00;48343.81;5079484;28;20019;-66
2023/03/19 01:29:57;;;;;;;25.20;13.68;;;;;;;-146.27;100.00;48367.72;5093826;28;20027;-67
2023/03/19 01:32:22;;;;;;;23.52;13.52;;;;;;;-146.27;100.00;48357.75;5091967;28;20032;-67
2023/03/19 01:34:47;;;;;;;22.55;13.90;;;;;;;-146.27;100.00;48347.81;5091294;28;20051;-68
2023/03/19 01:37:13;;;;;;;29.50;14.10;;;;;;;-146.27;100.00;48365.72;5092059;28;20035;-68
2023/03/19 01:39:38;;;;;;;27.20;13.38;;;;;;;-146.27;100.00;48379.66;5083175;28;20047;-67
2023/03/19 01:42:04;;;;;;;26.40;14.63;;;;;;;-146.27;100.00;48335.84;5086026;28;20414;-68
2023/03/19 01:44:31;;;;;;;33.03;15.55;;;;;;;-146.27;100.00;48375.69;5087986;28;20020;-68
2023/03/19 01:47:00;;;;;;;24.42;14.18;;;;;;;-146.27;100.00;48321.91;5080328;28;20039;-69
2023/03/19 01:49:27;;;;;;;57.15;16.13;;;;;;;-146.27;100.00;48327.88;5088800;28;20046;-68
2023/03/19 01:51:54;;;;;;;27.58;14.63;;;;;;;-146.27;100.00;48349.78;5090988;28;20027;-69
2023/03/19 01:54:22;;;;;;;27.38;14.82;;;;;;;-146.27;100.00;48345.81;5081721;28;20020;-67
2023/03/19 01:56:54;;;;;;;27.50;14.30;;;;;;;-146.27;100.00;48351.78;5093286;28;20020;-67
2023/03/19 01:59:27;;;;;;;25.25;14.60;;;;;;;-146.27;100.00;48359.75;5093072;28;20115;-67
2023/03/19 02:01:58;;;;;;;;;;;;;;;-146.27;100.00;48331.88;5079519;28;20032;-68
2023/03/19 02:04:28;;;;;;;26.25;14.07;;;;;;;-146.27;100.00;48375.69;5087714;28;19918;-67
2023/03/19 02:06:55;;;;;;;27.75;13.60;;;;;;;-146.27;100.00;48355.78;5072687;28;20028;-68
2023/03/19 02:09:23;;;;;;;30.98;15.30;;;;;;;-146.27;100.00;48367.72;5080749;28;20387;-66
2023/03/19 02:11:49;;;;;;;30.13;14.73;;;;;;;-146.27;100.00;48375.69;5085880;28;20027;-67
2023/03/19 02:14:15;;;;;;;30.02;14.80;;;;;;;-146.27;100.00;48353.78;5092155;28;20036;-68
2023/03/19 02:16:41;;;;;;;33.28;15.10;;;;;;;-146.27;100.00;48375.69;5092704;28;20030;-68
2023/03/19 02:19:12;;;;;;;30.27;14.82;;;;;;;-146.27;100.00;48375.69;5079658;28;20039;-68
2023/03/19 02:21:38;;;;;;;34.30;15.02;;;;;;;-146.27;100.00;48327.88;5074005;28;20496;-68
2023/03/19 02:24:18;;;;;;;31.27;14.63;;;;;;;-146.27;100.00;48337.84;5086344;28;20099;-67
2023/03/19 02:26:45;;;;;;;29.23;14.48;;;;;;;-146.27;100.00;48387.63;5076703;28;20028;-67
2023/03/19 02:29:11;;;;;;;26.25;13.45;;;;;;;-146.27;100.00;48359.75;5071798;28;20035;-67
2023/03/19 02:31:36;;;;;;;26.48;13.32;;;;;;;-146.27;100.00;48367.72;5081906;28;20352;-67
2023/03/19 02:34:06;;;;;;;28.20;13.75;;;;;;;-146.27;100.00;48359.75;5087178;28;20060;-66
2023/03/19 02:36:40;;;;;;;21.95;12.07;;;;;;;-146.27;100.00;48379.66;5074255;28;20024;-67
2023/03/19 02:39:12;;;;;;;24.98;11.95;;;;;;;-146.27;100.00;48361.75;5072538;28;20048;-67
2023/03/19 02:41:40;;;;;;;22.73;11.70;;;;;;;-146.27;100.00;48349.78;5081984;28;20030;-67
2023/03/19 02:44:08;;;;;;;20.75;11.55;;;;;;;-146.27;100.00;48351.78;5084881;28;20020;-67
2023/03/19 02:46:34;;;;;;;24.95;11.63;;;;;;;-146.27;100.00;48353.78;5083293;28;20024;-67
2023/03/19 02:48:59;;;;;;;24.15;12.05;;;;;;;-146.27;100.00;48357.75;5074662;28;20468;-68
2023/03/19 02:51:25;;;;;;;25.55;11.35;;;;;;;-146.27;100.00;48311.94;5090539;28;20024;-67
2023/03/19 02:53:50;;;;;;;23.83;12.65;;;;;;;-146.27;100.00;48357.75;5081849;28;20043;-68
2023/03/19 02:56:15;;;;;;;20.90;11.25;;;;;;;-146.27;100.00;48365.72;5072873;28;20055;-67
2023/03/19 02:58:41;;;;;;;21.35;11.32;;;;;;;-146.27;100.00;48363.75;5090876;28;20032;-66
2023/03/19 03:01:06;;;;;;;23.92;12.45;;;;;;;-146.27;100.00;48379.66;5088643;28;20034;-69
2023/03/19 03:03:33;;;;;;;23.33;11.73;;;;;;;-146.27;100.00;48331.88;5076997;28;20559;-66
2023/03/19 03:05:58;;;;;;;28.10;12.88;;;;;;;-146.27;100.00;48359.75;5092342;28;20024;-67
2023/03/19 03:08:23;;;;;;;23.05;13.10;;;;;;;-146.27;100.00;48371.69;5084804;28;20045;-67
2023/03/19 03:10:49;;;;;;;25.95;14.52;;;;;;;-146.27;100.00;48407.56;5089886;28;20081;-66
2023/03/19 03:13:15;;;;;;;24.83;13.20;;;;;;;-146.27;100.00;48355.78;5078085;28;20073;-67
2023/03/19 03:15:40;;;;;;;25.35;13.75;;;;;;;-146.27;100.00;48357.75;5096062;28;20039;-66
2023/03/19 03:18:05;;;;;;;28.17;15.35;;;;;;;-146.27;100.00;48377.69;5095903;28;20118;-66
2023/03/19 03:20:32;;;;;;;29.85;16.20;;;;;;;-146.27;100.00;48377.69;5077398;28;20476;-67
2023/03/19 03:22:57;;;;;;;31.23;16.48;;;;;;;-146.27;100.00;48363.75;5093204;28;20428;-67
2023/03/19 03:25:22;;;;;;;30.88;16.20;;;;;;;-146.27;100.00;48365.72;5077417;28;20100;-67
2023/03/19 03:27:48;;;;;;;33.47;17.45;;;;;;;-146.27;100.00;48359.75;5084724;28;20111;-67
2023/03/19 03:30:15;;;;;;;31.38;17.02;;;;;;;-146.27;100.00;48367.72;5095889;28;20814;-67
2023/03/19 03:32:41;;;;;;;32.70;18.52;;;;;;;-146.27;100.00;48343.81;5082451;28;20033;-67
2023/03/19 03:35:07;;;;;;;31.00;18.10;;;;;;;-146.27;100.00;48359.75;5092006;28;20020;-68
2023/03/19 03:37:33;;;;;;;32.95;17.75;;;;;;;-146.27;100.00;48399.59;5086679;28;20431;-66
2023/03/19 03:39:58;;;;;;;30.85;17.17;;;;;;;-146.27;100.00;48339.84;5075671;28;20086;-68
2023/03/19 03:42:24;;;;;;;30.08;17.75;;;;;;;-146.27;100.00;48355.78;5085405;28;20074;-68
2023/03/19 03:44:49;;;;;;;31.52;18.02;;;;;;;-146.27;100.00;48381.66;5086932;28;21680;-68
2023/03/19 03:47:16;;;;;;;35.30;19.05;;;;;;;-146.27;100.00;48355.78;5093930;28;20039;-66
2023/03/19 03:49:42;;;;;;;37.35;21.67;;;;;;;-146.27;100.00;48359.75;5084675;28;20361;-66
2023/03/19 03:52:08;;;;;;;42.83;22.58;;;;;;;-146.27;100.00;48351.78;5086965;28;20039;-65
2023/03/19 03:54:33;;;;;;;43.72;23.80;;;;;;;-146.27;100.00;48337.84;5076040;28;20063;-66
2023/03/19 03:57:00;;;;;;;44.50;24.25;;;;;;;-146.27;100.00;48343.81;5078363;28;20097;-68
2023/03/19 03:59:25;;;;;;;43.20;24.95;;;;;;;-146.27;100.00;48367.72;5095178;28;20107;-68
2023/03/19 04:01:50;;;;;;;45.13;25.35;;;;;;;-146.27;100.00;48347.81;5095073;28;20127;-68
2023/03/19 04:04:16;;;;;;;51.15;26.80;;;;;;;-146.27;100.00;48365.72;5094921;28;20066;-68
2023/03/19 04:06:41;;;;;;;55.58;28.73;;;;;;;-146.27;100.00;48365.72;5093948;28;20027;-68
2023/03/19 04:09:07;;;;;;;51.58;28.83;;;;;;;-146.27;100.00;48371.69;5085455;28;20059;-68
2023/03/19 04:11:34;;;;;;;55.40;27.92;;;;;;;-146.27;100.00;48371.69;5092383;28;20035;-68
2023/03/19 04:14:00;;;;;;;53.75;28.77;;;;;;;-146.27;100.00;48357.75;5076136;28;20040;-67
2023/03/19 04:16:27;;;;;;;47.60;25.17;;;;;;;-146.27;100.00;48331.88;5074829;28;20032;-67
2023/03/19 04:18:52;;;;;;;48.88;26.33;;;;;;;-146.27;100.00;48349.78;5080343;28;20047;-67
2023/03/19 04:21:18;;;;;;;57.45;27.38;;;;;;;-146.27;100.00;48365.72;5093910;28;20683;-68
2023/03/19 04:23:43;;;;;;;55.15;27.25;;;;;;;-146.27;100.00;48325.91;5089707;28;20118;-67
2023/03/19 04:26:09;;;;;;;59.13;27.55;;;;;;;-146.27;100.00;48335.84;5094263;28;20031;-67
2023/03/19 04:28:35;;;;;;;54.17;25.77;;;;;;;-146.27;100.00;48363.75;5077433;28;20399;-68
2023/03/19 04:31:03;;;;;;;54.92;27.52;;;;;;;-146.27;100.00;48359.75;5074629;28;20073;-67
2023/03/19 04:33:29;;;;;;;51.17;25.88;;;;;;;-146.27;100.00;48367.72;5074305;28;20032;-67
2023/03/19 04:35:55;;;;;;;55.00;26.20;;;;;;;-146.27;100.00;48327.88;5074418;28;20031;-68
2023/03/19 04:38:21;;;;;;;59.50;28.17;;;;;;;-146.27;100.00;48363.75;5074249;28;20028;-67
2023/03/19 04:40:47;;;;;;;58.45;27.13;;;;;;;-146.27;100.00;48379.66;5081072;28;20398;-67
2023/03/19 04:43:13;;;;;;;56.90;27.67;;;;;;;-146.27;100.00;48349.78;5077617;28;20021;-68
2023/03/19 04:45:38;;;;;;;61.95;27.30;;;;;;;-146.27;100.00;48363.75;5094417;28;20403;-68
2023/03/19 04:48:04;;;;;;;54.35;26.23;;;;;;;-146.27;100.00;48375.69;5083332;28;20024;-67
2023/03/19 04:50:29;;;;;;;60.33;27.45;;;;;;;-146.27;100.00;48331.88;5087510;28;20028;-67
2023/03/19 04:52:55;;;;;;;54.25;26.30;;;;;;;-146.27;100.00;48351.78;5093513;28;20047;-68
2023/03/19 04:55:20;;;;;;;59.75;27.85;;;;;;;-146.27;100.00;48357.75;5087729;28;20053;-68
2023/03/19 04:57:46;;;;;;;55.75;27.98;;;;;;;-146.27;100.00;48339.84;5082073;28;20060;-68
2023/03/19 05:00:13;;;;;;;60.45;27.33;;;;;;;-146.27;100.00;48349.78;5079080;28;20090;-67
2023/03/19 05:02:40;;;;;;;63.40;26.15;;;;;;;-146.27;100.00;48339.84;5080770;28;20429;-69
2023/03/19 05:05:06;;;;;;;54.13;26.05;;;;;;;-146.27;100.00;48359.75;5075461;28;20077;-67
2023/03/19 05:07:32;;;;;;;62.90;25.75;;;;;;;-146.27;100.00;48339.84;5085093;28;20044;-67
2023/03/19 05:09:57;;;;;;;57.42;25.02;;;;;;;-146.27;100.00;48391.63;5088747;28;20028;-68
2023/03/19 05:12:23;;;;;;;61.28;25.50;;;;;;;-146.27;100.00;48379.66;5088405;28;20069;-68
2023/03/19 05:14:48;;;;;;;60.17;23.98;;;;;;;-146.27;100.00;48365.72;5093347;28;20106;-68
2023/03/19 05:17:14;;;;;;;64.35;24.15;;;;;;;-146.27;100.00;48361.75;5087827;28;20017;-68
2023/03/19 05:19:39;;;;;;;60.72;24.00;;;;;;;-146.27;100.00;48387.63;5087780;28;20031;-67
2023/03/19 05:22:05;;;;;;;65.15;23.70;;;;;;;-146.27;100.00;48377.69;5091796;28;20028;-68
2023/03/19 05:24:30;;;;;;;60.38;23.27;;;;;;;-146.27;100.00;48381.66;5088987;28;20025;-68
2023/03/19 05:26:56;;;;;;;70.30;23.25;;;;;;;-146.27;100.00;48333.88;5086436;28;20024;-68
2023/03/19 05:29:22;;;;;;;68.05;24.33;;;;;;;-146.27;100.00;48343.81;5091729;28;20105;-67
2023/03/19 05:31:47;;;;;;;65.95;23.15;;;;;;;-146.27;100.00;48351.78;5083235;28;20048;-67
2023/03/19 05:34:13;;;;;;;66.95;23.40;;;;;;;-146.27;100.00;48391.63;5074177;28;20028;-66
2023/03/19 05:36:38;;;;;;;73.18;24.17;;;;;;;-146.27;100.00;48339.84;5083307;28;20024;-66
2023/03/19 05:39:04;;;;;;;64.70;22.30;;;;;;;-146.27;100.00;48383.66;5072405;28;20020;-67
2023/03/19 05:41:31;;;;;;;65.25;22.45;;;;;;;-146.27;100.00;48347.81;5092257;28;20036;-67
2023/03/19 05:43:57;;;;;;;66.10;22.10;;;;;;;-146.27;100.00;48363.75;5092111;28;20035;-68
2023/03/19 05:46:23;;;;;;;66.13;21.17;;;;;;;-146.27;100.00;48331.88;5088262;28;20471;-67
2023/03/19 05:48:49;;;;;;;67.70;22.00;;;;;;;-146.27;100.00;48373.69;5081471;28;20020;-66
2023/03/19 05:51:14;;;;;;;62.13;20.42;;;;;;;-146.27;100.00;48351.78;5082227;28;20036;-68
2023/03/19 05:53:40;;;;;;;63.83;21.60;;;;;;;-146.27;100.00;48395.59;5081461;28;20028;-66
2023/03/19 05:56:05;;;;;;;66.90;20.52;;;;;;;-146.27;100.00;48359.75;5084032;28;20025;-67
2023/03/19 05:58:31;;;;;;;69.13;21.65;;;;;;;-146.27;100.00;48353.78;5073018;28;20032;-66
2023/03/19 06:00:56;;;;;;;71.00;22.67;;;;;;;-146.27;100.00;48343.81;5090480;28;20066;-67
2023/03/19 06:03:22;;;;;;;84.18;23.13;;;;;;;-146.27;100.00;48403.56;5071698;28;20028;-68
2023/03/19 06:05:50;;;;;;;77.70;21.77;;;;;;;-146.27;100.00;48367.72;5082565;28;20107;-68
2023/03/19 06:08:16;;;;;;;69.82;22.02;;;;;;;-146.27;100.00;48367.72;5092043;28;20403;-67
2023/03/19 06:10:41;;;;;;;72.53;22.08;;;;;;;-146.27;100.00;48359.75;5092847;28;20027;-68
2023/03/19 06:13:06;;;;;;;77.70;22.25;;;;;;;-146.27;100.00;48393.63;5080783;28;20085;-67
2023/03/19 06:15:32;;;;;;;73.75;22.75;;;;;;;-146.27;100.00;48331.88;5074475;28;20063;-68
2023/03/19 06:17:57;;;;;;;68.32;21.58;;;;;;;-146.27;100.00;48385.66;5080104;28;20364;-67
2023/03/19 06:20:23;;;;;;;76.55;23.52;;;;;;;-146.27;100.00;48365.72;5072544;28;20385;-68
2023/03/19 06:22:48;;;;;;;74.03;23.27;;;;;;;-146.27;100.00;48363.75;5100130;28;20020;-66
2023/03/19 06:25:14;;;;;;;83.60;25.65;;;;;;;-146.27;100.00;48381.66;5084219;28;20024;-67
2023/03/19 06:27:39;;;;;;;78.30;23.48;;;;;;;-146.27;100.00;48339.84;5088707;28;20027;-67
2023/03/19 06:30:06;;;;;;;84.50;24.55;;;;;;;-146.27;100.00;48351.78;5091451;28;20032;-68
2023/03/19 06:32:31;;;;;;;73.13;23.23;;;;;;;-146.27;100.00;48371.69;5090683;28;20032;-66
2023/03/19 06:34:56;;;;;;;89.80;26.10;;;;;;;-146.27;100.00;48361.75;5074170;28;20039;-67
2023/03/19 06:37:22;;;;;;;82.82;25.23;;;;;;;-146.27;100.00;48363.75;5086324;28;20032;-67
2023/03/19 06:39:48;;;;;;;96.10;27.55;;;;;;;-146.27;100.00;48379.66;5072633;28;20052;-67
2023/03/19 06:42:13;;;;;;;93.28;27.65;;;;;;;-146.27;100.00;48339.84;5072600;28;20472;-69
2023/03/19 06:44:39;;;;;;;91.22;27.08;;;;;;;-146.27;100.00;48331.88;5074701;28;20021;-67
2023/03/19 06:47:04;;;;;;;94.68;25.88;;;;;;;-146.27;100.00;48381.66;5077050;28;20512;-71
2023/03/19 06:49:30;;;;;;;93.47;25.67;;;;;;;-146.27;100.00;48351.78;5086275;28;20024;-68
2023/03/19 06:51:55;;;;;;;102.55;26.38;;;;;;;-146.27;100.00;48385.66;5096770;28;20039;-68
2023/03/19 06:54:21;;;;;;;93.53;26.20;;;;;;;-146.27;100.00;48357.75;5087795;28;20028;-68
2023/03/19 06:56:47;;;;;;;90.15;26.27;;;;;;;-146.27;100.00;48345.81;5093516;28;20036;-66
2023/03/19 06:59:13;;;;;;;97.85;26.70;;;;;;;-146.27;100.00;48331.88;5080915;28;20028;-66
2023/03/19 07:01:41;;;;;;;92.00;26.48;;;;;;;-146.27;100.00;48369.72;5091425;28;20024;-67
2023/03/19 07:04:07;;;;;;;107.35;28.23;;;;;;;-146.27;100.00;48385.66;5096360;28;20012;-68
2023/03/19 07:06:33;;;;;;;88.65;25.95;;;;;;;-146.27;100.00;48375.69;5087796;28;20035;-67
2023/03/19 07:08:59;;;;;;;78.13;24.45;;;;;;;-146.27;100.00;48365.72;5095669;28;21414;-67
2023/03/19 07:11:24;;;;;;;81.75;23.88;;;;;;;-146.27;100.00;48345.81;5091581;28;20515;-67
2023/03/19 07:13:50;;;;;;;80.47;23.88;;;;;;;-146.27;100.00;48369.72;5088654;28;20024;-67
2023/03/19 07:16:15;;;;;;;85.88;24.75;;;;;;;-146.27;100.00;48367.72;5082439;28;20028;-68
2023/03/19 07:18:40;;;;;;;85.43;24.00;;;;;;;-146.27;100.00;48339.84;5081034;28;20434;-68
2023/03/19 07:21:06;;;;;;;92.50;25.33;;;;;;;-146.27;100.00;48379.66;5089127;28;20459;-68
2023/03/19 07:23:31;;;;;;;80.40;23.88;;;;;;;-146.27;100.00;48375.69;5083139;28;20031;-67
2023/03/19 07:25:57;;;;;;;87.00;24.48;;;;;;;-146.27;100.00;48339.84;5087722;28;20089;-66
2023/03/19 07:28:22;;;;;;;93.25;25.90;;;;;;;-146.27;100.00;48373.69;5087808;28;20050;-66
2023/03/19 07:30:50;;;;;;;90.78;24.45;;;;;;;-146.27;100.00;48383.66;5082331;28;20056;-67
2023/03/19 07:33:16;;;;;;;87.00;26.15;;;;;;;-146.27;100.00;48383.66;5077878;28;20032;-68
2023/03/19 07:35:41;;;;;;;89.22;25.33;;;;;;;-146.27;100.00;48351.78;5084619;28;20522;-67
2023/03/19 07:38:07;;;;;;;75.97;25.38;;;;;;;-146.27;100.00;48361.75;5086344;28;20391;-68
2023/03/19 07:40:32;;;;;;;78.28;24.67;;;;;;;-146.27;100.00;48375.69;5089150;28;20071;-68
2023/03/19 07:42:57;;;;;;;79.45;22.98;;;;;;;-146.27;100.00;48387.63;5091284;28;20488;-68
2023/03/19 07:45:23;;;;;;;73.85;22.80;;;;;;;-146.27;100.00;48365.72;5092224;28;20145;-69
2023/03/19 07:47:50;;;;;;;80.20;23.92;;;;;;;-146.27;100.00;48367.72;5094420;28;20031;-68
2023/03/19 07:50:15;;;;;;;78.65;25.13;;;;;;;-146.27;100.00;48377.69;5090771;28;20028;-66
2023/03/19 07:52:41;;;;;;;74.93;24.83;;;;;;;-146.27;100.00;48387.63;5091806;28;20024;-67
2023/03/19 07:55:06;;;;;;;77.57;24.73;;;;;;;-146.27;100.00;48359.75;5088164;28;20027;-67
2023/03/19 07:57:32;;;;;;;76.10;24.60;;;;;;;-146.27;100.00;48339.84;5083954;28;20472;-67
2023/03/19 07:59:57;;;;;;;82.75;24.88;;;;;;;-146.27;100.00;48327.88;5088240;28;20028;-67
2023/03/19 08:02:23;;;;;;;74.05;22.67;;;;;;;-146.27;100.00;48369.72;5081229;28;20032;-67
2023/03/19 08:04:48;;;;;;;72.35;24.50;;;;;;;-146.27;100.00;48381.66;5087161;28;20091;-67
2023/03/19 08:07:14;;;;;;;77.63;25.65;;;;;;;-146.27;100.00;48375.69;5080456;28;20051;-67
2023/03/19 08:09:40;;;;;;;83.50;24.90;;;;;;;-146.27;100.00;48375.69;5087512;28;20024;-68
2023/03/19 08:12:06;;;;;;;74.20;25.40;;;;;;;-146.27;100.00;48311.94;5075336;28;20029;-67
2023/03/19 08:14:35;;;;;;;70.63;24.55;;;;;;;-146.27;100.00;48339.84;5086450;28;20024;-67
2023/03/19 08:17:00;;;;;;;78.03;27.45;;;;;;;-146.27;100.00;48375.69;5094145;28;20043;-68
2023/03/19 08:19:27;;;;;;;74.00;26.02;;;;;;;-146.27;100.00;48357.75;5090146;28;20506;-67
2023/03/19 08:21:52;;;;;;;68.05;26.17;;;;;;;-146.27;100.00;48383.66;5095650;28;20059;-68
2023/03/19 08:24:18;;;;;;;80.30;25.65;;;;;;;-146.27;100.00;48405.56;5088210;28;20441;-67
2023/03/19 08:26:44;;;;;;;74.72;26.50;;;;;;;-146.27;100.00;48367.72;5098095;28;20016;-66
2023/03/19 08:29:09;;;;;;;76.05;26.98;;;;;;;-146.27;100.00;48377.69;5093230;28;20388;-67
2023/03/19 08:31:35;;;;;;;71.75;24.90;;;;;;;-146.27;100.00;48355.78;5087609;28;20037;-67
2023/03/19 08:34:03;;;;;;;75.60;25.08;;;;;;;-146.27;100.00;48357.75;5078511;28;20594;-68
2023/03/19 08:36:30;;;;;;;71.88;25.80;;;;;;;-146.27;100.00;48335.84;5077441;28;20078;-68
2023/03/19 08:38:56;;;;;;;64.93;22.20;;;;;;;-146.27;100.00;48381.66;5080939;28;20243;-68
2023/03/19 08:41:22;;;;;;;67.03;25.08;;;;;;;-146.27;100.00;48359.75;5062157;28;20028;-66
2023/03/19 08:43:47;;;;;;;81.80;25.63;;;;;;;-146.27;100.00;48365.72;5078387;28;20024;-68
2023/03/19 08:46:13;;;;;;;78.13;25.75;;;;;;;-146.27;100.00;48379.66;5084936;28;20036;-68
2023/03/19 08:48:38;;;;;;;82.40;27.75;;;;;;;-146.27;100.00;48371.69;5088626;28;20543;-67
2023/03/19 08:51:04;;;;;;;89.47;29.77;;;;;;;-146.27;100.00;48359.75;5086526;28;20433;-69
2023/03/19 08:53:31;;;;;;;72.93;25.58;;;;;;;-146.27;100.00;48383.66;5086731;28;20021;-68
2023/03/19 08:56:00;;;;;;;77.35;25.73;;;;;;;-146.27;100.00;48345.81;5092112;28;20053;-69
2023/03/19 08:58:27;;;;;;;75.82;25.58;;;;;;;-146.27;100.00;48339.84;5088157;28;20038;-68
2023/03/19 09:00:52;;;;;;;84.88;26.08;;;;;;;-146.27;100.00;48335.84;5084333;28;20369;-68
2023/03/19 09:03:19;;;;;;;80.70;26.65;;;;;;;-146.27;100.00;48371.69;5083007;28;20050;-67
2023/03/19 09:05:45;;;;;;;83.85;26.73;;;;;;;-146.27;100.00;48337.84;5082830;28;20024;-68
2023/03/19 09:08:11;;;;;;;84.22;27.50;;;;;;;-146.27;100.00;48359.75;5088091;28;20049;-67
2023/03/19 09:10:37;;;;;;;88.13;27.35;;;;;;;-146.27;100.00;48347.81;5081769;28;20364;-68
2023/03/19 09:13:03;;;;;;;77.10;25.65;;;;;;;-146.27;100.00;48375.69;5089908;28;20024;-67
2023/03/19 09:15:29;;;;;;;89.03;25.00;;;;;;;-146.27;100.00;48359.75;5085066;28;20048;-68
2023/03/19 09:17:55;;;;;;;71.68;24.33;;;;;;;-146.27;100.00;48335.84;5080633;28;20055;-68
2023/03/19 09:20:21;;;;;;;75.68;24.08;;;;;;;-146.27;100.00;48339.84;5075482;28;20103;-68
2023/03/19 09:22:46;;;;;;;79.18;27.63;;;;;;;-146.27;100.00;48355.78;5074469;28;20032;-67
2023/03/19 09:25:11;;;;;;;86.75;26.77;;;;;;;-146.27;100.00;48379.66;5081335;28;20028;-66
2023/03/19 09:27:37;;;;;;;80.70;25.30;;;;;;;-146.27;100.00;48319.91;5084953;28;20032;-68
2023/03/19 09:30:03;;;;;;;85.60;26.50;;;;;;;-146.27;100.00;48335.84;5076121;28;20029;-68
2023/03/19 09:32:29;;;;;;;83.65;25.05;;;;;;;-146.27;100.00;48345.81;5080958;28;20545;-68
2023/03/19 09:34:54;;;;;;;86.57;26.08;;;;;;;-146.27;100.00;48363.75;5082602;28;20032;-69
2023/03/19 09:37:20;;;;;;;81.38;24.77;;;;;;;-146.27;100.00;48355.78;5082017;28;20028;-67
2023/03/19 09:39:45;;;;;;;76.88;23.95;;;;;;;-146.27;100.00;48347.81;5085832;28;20036;-70
2023/03/19 09:42:29;;;;;;;80.57;23.60;;;;;;;-146.27;100.00;48327.88;5086315;28;20457;-67
2023/03/19 09:44:55;;;;;;;82.75;23.95;;;;;;;-146.27;100.00;48331.88;5078677;28;20027;-68
2023/03/19 09:47:33;;;;;;;71.25;24.33;;;;;;;-146.27;100.00;48359.75;5083494;28;20047;-68
2023/03/19 09:50:04;;;;;;;76.85;22.48;;;;;;;-146.27;100.00;48359.75;5093204;28;20023;-68
2023/03/19 09:52:45;;;;;;;63.85;20.00;;;;;;;-146.27;100.00;48355.78;5078554;28;20025;-69
2023/03/19 09:55:18;;;;;;;53.70;20.00;;;;;;;-146.27;100.00;48347.81;5083389;28;20073;-69
2023/03/19 09:57:45;;;;;;;62.70;21.67;;;;;;;-146.27;100.00;48381.66;5081461;28;20032;-70
2023/03/19 10:00:19;;;;;;;69.32;22.70;;;;;;;-146.27;100.00;48331.88;5079924;28;20027;-68
2023/03/19 10:02:45;;;;;;;63.53;21.10;;;;;;;-146.27;100.00;48343.81;5081265;28;20541;-66
2023/03/19 10:05:22;;;;;;;64.65;23.50;;;;;;;-146.27;100.00;48375.69;5078264;28;20032;-67
2023/03/19 10:08:07;;;;;;;66.80;21.63;;;;;;;-146.27;100.00;48333.88;5082419;28;20134;-67
2023/03/19 10:10:57;;;;;;;70.30;21.92;;;;;;;-146.27;100.00;48361.75;5082734;28;20035;-68
2023/03/19 10:13:40;;;;;;;58.83;20.45;;;;;;;-146.27;100.00;48379.66;5082705;28;20032;-68
2023/03/19 10:16:13;;;;;;;65.32;21.38;;;;;;;-146.27;100.00;48341.81;5081691;28;20127;-68
2023/03/19 10:18:43;;;;;;;65.22;22.83;;;;;;;-146.27;100.00;48327.88;5082153;28;20016;-67
2023/03/19 10:21:35;;;;;;;62.00;21.90;;;;;;;-146.27;100.00;48343.81;5079773;28;20032;-68
2023/03/19 10:24:11;;;;;;;55.00;21.10;;;;;;;-146.27;100.00;48335.84;5060328;28;20578;-69
2023/03/19 10:26:36;;;;;;;65.10;21.95;;;;;;;-146.27;100.00;48325.91;5084580;28;20028;-68
2023/03/19 10:29:08;;;;;;;59.42;23.17;;;;;;;-146.27;100.00;48337.84;5081088;28;20111;-68
2023/03/19 10:31:58;;;;;;;62.20;23.58;;;;;;;-146.27;100.00;48335.84;5090200;28;20024;-68
2023/03/19 10:34:35;;;;;;;64.53;20.45;;;;;;;-146.27;100.00;48367.72;5090556;28;20479;-68
2023/03/19 10:37:04;;;;;;;54.58;21.40;;;;;;;-146.27;100.00;48339.84;5089222;28;20028;-66
2023/03/19 10:39:32;;;;;;;55.25;23.15;;;;;;;-146.27;100.00;48307.97;5079955;28;20016;-69
2023/03/19 10:42:34;;;;;;;58.45;20.98;;;;;;;-146.27;100.00;48339.84;5083893;28;20046;-68
2023/03/19 10:45:23;;;;;;;46.95;19.70;;;;;;;-146.27;100.00;48367.72;5086289;28;20106;-69
2023/03/19 10:47:48;;;;;;;43.42;19.02;;;;;;;-146.27;100.00;48383.66;5081772;28;20431;-69
2023/03/19 10:50:17;;;;;;;48.03;21.67;;;;;;;-146.27;100.00;48351.78;5080658;28;20020;-70
2023/03/19 10:52:42;;;;;;;46.70;21.40;;;;;;;-146.27;100.00;48325.91;5077422;28;20029;-70
2023/03/19 10:55:18;;;;;;;48.28;21.95;;;;;;;-146.27;100.00;48319.91;5084867;28;20027;-68